sensor_id;sensor_type;location;lat;lon;timestamp;pressure;altitude;pressure_sealevel;temperature;humidity
68489;BME280;55481;48.764;8.936;2024-03-02T00:01:10;95840;;;5.5;69.5
68489;BME280;55481;48.764;8.936;2024-03-02T00:11:17;95840;;;5.3;69.5
68489;BME280;55481;48.764;8.936;2024-03-02T00:13:48;95840;;;5.3;69.5
68489;BME280;55481;48.764;8.936;2024-03-02T00:18:41;95840;;;5.4;69.5
68489;BME280;55481;48.764;8.936;2024-03-02T00:21:12;95840;;;5.5;69
68489;BME280;55481;48.764;8.936;2024-03-02T00:23:43;95840;;;5.6;69
68489;BME280;55481;48.764;8.936;2024-03-02T00:26:14;95840;;;5.8;68.5
68489;BME280;55481;48.764;8.936;2024-03-02T00:28:54;95840;;;5.8;68.5
68489;BME280;55481;48.764;8.936;2024-03-02T00:36:26;95830;;;6.1;68
68489;BME280;55481;48.764;8.936;2024-03-02T00:38:55;95830;;;6;68.5
68489;BME280;55481;48.764;8.936;2024-03-02T00:43:53;95830;;;6;68.5
68489;BME280;55481;48.764;8.936;2024-03-02T00:46:20;95830;;;6.1;68.5
68489;BME280;55481;48.764;8.936;2024-03-02T00:48:55;95830;;;6;68.5
68489;BME280;55481;48.764;8.936;2024-03-02T00:51:22;95830;;;5.9;68.5
68489;BME280;55481;48.764;8.936;2024-03-02T00:54:00;95840;;;6;68.5
68489;BME280;55481;48.764;8.936;2024-03-02T00:56:29;95830;;;6;68.5
68489;BME280;55481;48.764;8.936;2024-03-02T00:59:06;95830;;;6.1;68.5
68489;BME280;55481;48.764;8.936;2024-03-02T01:04:01;95840;;;6;68.5
68489;BME280;55481;48.764;8.936;2024-03-02T01:09:01;95840;;;6;68.5
68489;BME280;55481;48.764;8.936;2024-03-02T01:11:31;95840;;;6;69
68489;BME280;55481;48.764;8.936;2024-03-02T01:14:01;95840;;;6;69
68489;BME280;55481;48.764;8.936;2024-03-02T01:16:32;95840;;;5.9;69
68489;BME280;55481;48.764;8.936;2024-03-02T01:21:35;95850;;;6;69
68489;BME280;55481;48.764;8.936;2024-03-02T01:26:35;95850;;;5.8;69
68489;BME280;55481;48.764;8.936;2024-03-02T01:29:14;95850;;;5.7;69
68489;BME280;55481;48.764;8.936;2024-03-02T01:31:45;95840;;;5.7;69.5
68489;BME280;55481;48.764;8.936;2024-03-02T01:34:06;95840;;;5.8;69
68489;BME280;55481;48.764;8.936;2024-03-02T01:36:36;95830;;;5.7;69.5
68489;BME280;55481;48.764;8.936;2024-03-02T01:41:25;95830;;;5.5;69.5
68489;BME280;55481;48.764;8.936;2024-03-02T01:43:56;95830;;;5.5;69.5
68489;BME280;55481;48.764;8.936;2024-03-02T01:46:26;95830;;;5.4;70
68489;BME280;55481;48.764;8.936;2024-03-02T01:53:59;95830;;;5.3;70
68489;BME280;55481;48.764;8.936;2024-03-02T01:58:59;95830;;;5.2;70
68489;BME280;55481;48.764;8.936;2024-03-02T02:01:30;95830;;;5.2;70
68489;BME280;55481;48.764;8.936;2024-03-02T02:09:23;95820;;;5;70
68489;BME280;55481;48.764;8.936;2024-03-02T02:11:55;95820;;;4.9;70.5
68489;BME280;55481;48.764;8.936;2024-03-02T02:16:55;95830;;;4.8;70.5
68489;BME280;55481;48.764;8.936;2024-03-02T02:19:25;95820;;;4.8;70.5
68489;BME280;55481;48.764;8.936;2024-03-02T02:21:56;95830;;;4.8;70.5
68489;BME280;55481;48.764;8.936;2024-03-02T02:24:15;95820;;;4.8;70
68489;BME280;55481;48.764;8.936;2024-03-02T02:26:46;95820;;;4.7;70
68489;BME280;55481;48.764;8.936;2024-03-02T02:29:15;95810;;;4.7;70.5
68489;BME280;55481;48.764;8.936;2024-03-02T02:31:36;95810;;;4.8;70
68489;BME280;55481;48.764;8.936;2024-03-02T02:34:05;95810;;;4.7;70
68489;BME280;55481;48.764;8.936;2024-03-02T02:36:37;95810;;;4.6;70.5
68489;BME280;55481;48.764;8.936;2024-03-02T02:44:08;95800;;;4.4;71
68489;BME280;55481;48.764;8.936;2024-03-02T02:46:38;95800;;;4.4;70.5
68489;BME280;55481;48.764;8.936;2024-03-02T02:49:31;95800;;;4.3;70.5
68489;BME280;55481;48.764;8.936;2024-03-02T02:52:02;95800;;;4.3;70.5
68489;BME280;55481;48.764;8.936;2024-03-02T02:54:33;95810;;;4.3;70.5
68489;BME280;55481;48.764;8.936;2024-03-02T02:57:12;95810;;;4.3;70.5
68489;BME280;55481;48.764;8.936;2024-03-02T02:59:22;95810;;;4;71
68489;BME280;55481;48.764;8.936;2024-03-02T03:02:01;95810;;;3.9;71.5
68489;BME280;55481;48.764;8.936;2024-03-02T03:09:36;95810;;;4;71
68489;BME280;55481;48.764;8.936;2024-03-02T03:12:05;95810;;;4;71
68489;BME280;55481;48.764;8.936;2024-03-02T03:14:35;95800;;;4;70.5
68489;BME280;55481;48.764;8.936;2024-03-02T03:16:54;95810;;;4;70.5
68489;BME280;55481;48.764;8.936;2024-03-02T03:19:24;95810;;;3.9;70.5
68489;BME280;55481;48.764;8.936;2024-03-02T03:21:54;95810;;;3.9;71
68489;BME280;55481;48.764;8.936;2024-03-02T03:24:33;95810;;;3.7;71
68489;BME280;55481;48.764;8.936;2024-03-02T03:29:45;95810;;;3.6;71.5
68489;BME280;55481;48.764;8.936;2024-03-02T03:34:37;95810;;;3.8;71
68489;BME280;55481;48.764;8.936;2024-03-02T03:37:08;95820;;;3.7;71
68489;BME280;55481;48.764;8.936;2024-03-02T03:39:38;95810;;;3.5;71
68489;BME280;55481;48.764;8.936;2024-03-02T03:41:57;95810;;;3.5;71.5
68489;BME280;55481;48.764;8.936;2024-03-02T03:44:27;95810;;;3.6;71
68489;BME280;55481;48.764;8.936;2024-03-02T03:47:07;95810;;;3.6;71
68489;BME280;55481;48.764;8.936;2024-03-02T03:49:27;95810;;;3.6;71
68489;BME280;55481;48.764;8.936;2024-03-02T03:52:07;95810;;;3.4;71.5
68489;BME280;55481;48.764;8.936;2024-03-02T03:56:47;95800;;;3.4;72
68489;BME280;55481;48.764;8.936;2024-03-02T03:59:29;95810;;;3.6;71
68489;BME280;55481;48.764;8.936;2024-03-02T04:01:59;95800;;;3.7;71
68489;BME280;55481;48.764;8.936;2024-03-02T04:04:29;95790;;;3.8;70.5
68489;BME280;55481;48.764;8.936;2024-03-02T04:09:18;95800;;;3.8;70.5
68489;BME280;55481;48.764;8.936;2024-03-02T04:16:50;95810;;;3.5;71
68489;BME280;55481;48.764;8.936;2024-03-02T04:19:20;95810;;;3.5;71
68489;BME280;55481;48.764;8.936;2024-03-02T04:21:51;95810;;;3.5;71
68489;BME280;55481;48.764;8.936;2024-03-02T04:24:33;95810;;;3.5;71
68489;BME280;55481;48.764;8.936;2024-03-02T04:27:03;95800;;;3.5;71
68489;BME280;55481;48.764;8.936;2024-03-02T04:29:42;95810;;;3.4;71
68489;BME280;55481;48.764;8.936;2024-03-02T04:32:03;95810;;;3.5;71
68489;BME280;55481;48.764;8.936;2024-03-02T04:34:33;95810;;;3.5;71
68489;BME280;55481;48.764;8.936;2024-03-02T04:36:53;95800;;;3.5;71
68489;BME280;55481;48.764;8.936;2024-03-02T04:44:24;95800;;;3.5;71
68489;BME280;55481;48.764;8.936;2024-03-02T04:46:55;95800;;;3.5;71
68489;BME280;55481;48.764;8.936;2024-03-02T04:49:25;95810;;;3.4;70.5
68489;BME280;55481;48.764;8.936;2024-03-02T04:51:56;95810;;;3.2;71.5
68489;BME280;55481;48.764;8.936;2024-03-02T04:54:26;95810;;;3;72
68489;BME280;55481;48.764;8.936;2024-03-02T04:56:57;95810;;;3;72
68489;BME280;55481;48.764;8.936;2024-03-02T04:59:27;95820;;;3.1;72
68489;BME280;55481;48.764;8.936;2024-03-02T05:02:00;95810;;;3.2;71.5
68489;BME280;55481;48.764;8.936;2024-03-02T05:04:28;95820;;;3.3;71.5
68489;BME280;55481;48.764;8.936;2024-03-02T05:09:40;95820;;;3.3;71
68489;BME280;55481;48.764;8.936;2024-03-02T05:26:44;95830;;;3.3;72
68489;BME280;55481;48.764;8.936;2024-03-02T05:29:06;95830;;;3.2;71.5
68489;BME280;55481;48.764;8.936;2024-03-02T05:36:38;95830;;;3.3;71
68489;BME280;55481;48.764;8.936;2024-03-02T05:39:09;95840;;;3.4;71
68489;BME280;55481;48.764;8.936;2024-03-02T05:41:39;95840;;;3.3;71
68489;BME280;55481;48.764;8.936;2024-03-02T05:46:41;95840;;;3.2;71
68489;BME280;55481;48.764;8.936;2024-03-02T05:51:58;95840;;;3.1;71
68489;BME280;55481;48.764;8.936;2024-03-02T05:54:28;95840;;;3.1;71
68489;BME280;55481;48.764;8.936;2024-03-02T05:56:58;95840;;;3.1;71
68489;BME280;55481;48.764;8.936;2024-03-02T05:59:28;95840;;;3;71.5
68489;BME280;55481;48.764;8.936;2024-03-02T06:02:07;95830;;;3;71.5
68489;BME280;55481;48.764;8.936;2024-03-02T06:04:37;95830;;;3.1;71
68489;BME280;55481;48.764;8.936;2024-03-02T06:06:58;95830;;;3.1;71
68489;BME280;55481;48.764;8.936;2024-03-02T06:09:28;95840;;;3;71
68489;BME280;55481;48.764;8.936;2024-03-02T06:11:58;95840;;;2.9;71.5
68489;BME280;55481;48.764;8.936;2024-03-02T06:14:29;95840;;;3;71
68489;BME280;55481;48.764;8.936;2024-03-02T06:16:58;95840;;;3.1;71
68489;BME280;55481;48.764;8.936;2024-03-02T06:19:28;95850;;;3.1;71
68489;BME280;55481;48.764;8.936;2024-03-02T06:21:58;95840;;;3.1;71
68489;BME280;55481;48.764;8.936;2024-03-02T06:26:48;95850;;;3.2;71
68489;BME280;55481;48.764;8.936;2024-03-02T06:29:18;95850;;;3.2;71
68489;BME280;55481;48.764;8.936;2024-03-02T06:31:49;95850;;;3.2;71
68489;BME280;55481;48.764;8.936;2024-03-02T06:34:19;95850;;;3.1;71.5
68489;BME280;55481;48.764;8.936;2024-03-02T06:36:49;95850;;;3.1;71.5
68489;BME280;55481;48.764;8.936;2024-03-02T06:39:20;95840;;;3.3;71
68489;BME280;55481;48.764;8.936;2024-03-02T06:41:51;95850;;;3.3;70.5
68489;BME280;55481;48.764;8.936;2024-03-02T06:44:33;95850;;;3.3;71
68489;BME280;55481;48.764;8.936;2024-03-02T06:47:03;95850;;;3.4;70.5
68489;BME280;55481;48.764;8.936;2024-03-02T06:49:35;95850;;;3.5;70.5
68489;BME280;55481;48.764;8.936;2024-03-02T06:52:12;95850;;;3.5;70.5
68489;BME280;55481;48.764;8.936;2024-03-02T06:56:52;95860;;;3.6;70.5
68489;BME280;55481;48.764;8.936;2024-03-02T06:59:22;95850;;;3.6;70.5
68489;BME280;55481;48.764;8.936;2024-03-02T07:01:53;95850;;;3.7;70.5
68489;BME280;55481;48.764;8.936;2024-03-02T07:04:23;95850;;;4;70
68489;BME280;55481;48.764;8.936;2024-03-02T07:06:54;95850;;;4.2;69.5
68489;BME280;55481;48.764;8.936;2024-03-02T07:09:24;95850;;;4.2;69.5
68489;BME280;55481;48.764;8.936;2024-03-02T07:12:06;95860;;;4.2;69.5
68489;BME280;55481;48.764;8.936;2024-03-02T07:14:36;95860;;;4.1;70
68489;BME280;55481;48.764;8.936;2024-03-02T07:19:46;95860;;;4;70.5
68489;BME280;55481;48.764;8.936;2024-03-02T07:24:49;95860;;;4.1;70
68489;BME280;55481;48.764;8.936;2024-03-02T07:27:19;95860;;;4.1;70
68489;BME280;55481;48.764;8.936;2024-03-02T07:29:59;95860;;;4.2;70
68489;BME280;55481;48.764;8.936;2024-03-02T07:32:30;95860;;;4.1;70.5
68489;BME280;55481;48.764;8.936;2024-03-02T07:34:51;95860;;;4.1;70.5
68489;BME280;55481;48.764;8.936;2024-03-02T07:37:22;95860;;;4.2;70.5
68489;BME280;55481;48.764;8.936;2024-03-02T07:39:41;95860;;;4.2;70.5
68489;BME280;55481;48.764;8.936;2024-03-02T07:42:11;95860;;;4.3;70
68489;BME280;55481;48.764;8.936;2024-03-02T07:44:41;95860;;;4.3;70
68489;BME280;55481;48.764;8.936;2024-03-02T07:47:11;95860;;;4.4;70
68489;BME280;55481;48.764;8.936;2024-03-02T07:52:22;95860;;;4.5;70
68489;BME280;55481;48.764;8.936;2024-03-02T07:57:24;95860;;;5;69.5
68489;BME280;55481;48.764;8.936;2024-03-02T07:59:54;95860;;;5.2;69
68489;BME280;55481;48.764;8.936;2024-03-02T08:02:34;95860;;;5.5;69
68489;BME280;55481;48.764;8.936;2024-03-02T08:05:14;95860;;;5.8;68.5
68489;BME280;55481;48.764;8.936;2024-03-02T08:07:26;95850;;;6.2;68
68489;BME280;55481;48.764;8.936;2024-03-02T08:09:57;95840;;;6.5;67.5
68489;BME280;55481;48.764;8.936;2024-03-02T08:14:47;95840;;;6.8;67.5
68489;BME280;55481;48.764;8.936;2024-03-02T08:17:17;95850;;;6.8;68
68489;BME280;55481;48.764;8.936;2024-03-02T08:19:47;95850;;;7;67.5
68489;BME280;55481;48.764;8.936;2024-03-02T08:27:39;95830;;;7.3;67.5
68489;BME280;55481;48.764;8.936;2024-03-02T08:30:18;95840;;;7.6;67.5
68489;BME280;55481;48.764;8.936;2024-03-02T08:32:30;95840;;;7.8;67
68489;BME280;55481;48.764;8.936;2024-03-02T08:35:01;95840;;;7.9;67
68489;BME280;55481;48.764;8.936;2024-03-02T08:37:32;95840;;;8.1;67
68489;BME280;55481;48.764;8.936;2024-03-02T08:40:03;95830;;;8.1;67.5
68489;BME280;55481;48.764;8.936;2024-03-02T08:42:33;95820;;;8.4;67
68489;BME280;55481;48.764;8.936;2024-03-02T08:45:13;95830;;;8.5;67
68489;BME280;55481;48.764;8.936;2024-03-02T08:50:03;95830;;;8.8;67
68489;BME280;55481;48.764;8.936;2024-03-02T08:55:15;95830;;;9;67
68489;BME280;55481;48.764;8.936;2024-03-02T08:57:45;95830;;;9.1;67
68489;BME280;55481;48.764;8.936;2024-03-02T09:00:07;95820;;;9.4;66.5
68489;BME280;55481;48.764;8.936;2024-03-02T09:02:37;95820;;;9.6;66.5
68489;BME280;55481;48.764;8.936;2024-03-02T09:05:08;95820;;;9.7;66.5
68489;BME280;55481;48.764;8.936;2024-03-02T09:07:37;95810;;;10;66
68489;BME280;55481;48.764;8.936;2024-03-02T09:09:56;95810;;;10.1;66
68489;BME280;55481;48.764;8.936;2024-03-02T09:12:27;95810;;;10.3;66
68489;BME280;55481;48.764;8.936;2024-03-02T09:22:48;95800;;;10.5;66.5
68489;BME280;55481;48.764;8.936;2024-03-02T09:29:59;95780;;;10.8;66
68489;BME280;55481;48.764;8.936;2024-03-02T09:32:30;95780;;;11.2;65.5
68489;BME280;55481;48.764;8.936;2024-03-02T09:34:59;95780;;;11.1;66
68489;BME280;55481;48.764;8.936;2024-03-02T09:39:49;95780;;;11.5;65.5
68489;BME280;55481;48.764;8.936;2024-03-02T09:44:50;95790;;;11.1;66.5
68489;BME280;55481;48.764;8.936;2024-03-02T09:47:20;95790;;;10.9;67
68489;BME280;55481;48.764;8.936;2024-03-02T09:49:51;95790;;;10.9;67
68489;BME280;55481;48.764;8.936;2024-03-02T09:52:22;95780;;;11.1;67
68489;BME280;55481;48.764;8.936;2024-03-02T09:54:51;95780;;;11.1;66.5
68489;BME280;55481;48.764;8.936;2024-03-02T09:57:22;95780;;;11.4;66.5
68489;BME280;55481;48.764;8.936;2024-03-02T10:04:54;95780;;;11.8;65.5
68489;BME280;55481;48.764;8.936;2024-03-02T10:07:52;95780;;;11.7;66
68489;BME280;55481;48.764;8.936;2024-03-02T10:10:12;95770;;;11.9;65.5
68489;BME280;55481;48.764;8.936;2024-03-02T10:12:36;95770;;;11.9;65.5
68489;BME280;55481;48.764;8.936;2024-03-02T10:15:06;95770;;;12;65.5
68489;BME280;55481;48.764;8.936;2024-03-02T10:17:36;95770;;;12.2;65.5
68489;BME280;55481;48.764;8.936;2024-03-02T10:20:37;95770;;;12.1;65.5
68489;BME280;55481;48.764;8.936;2024-03-02T10:22:45;95770;;;12;66
68489;BME280;55481;48.764;8.936;2024-03-02T10:25:06;95760;;;12;66
68489;BME280;55481;48.764;8.936;2024-03-02T10:27:36;95760;;;12.2;65.5
68489;BME280;55481;48.764;8.936;2024-03-02T10:30:16;95760;;;12.4;65
68489;BME280;55481;48.764;8.936;2024-03-02T10:32:26;95760;;;12.4;65.5
68489;BME280;55481;48.764;8.936;2024-03-02T10:34:56;95760;;;12.5;65
68489;BME280;55481;48.764;8.936;2024-03-02T10:37:26;95750;;;12.8;65
68489;BME280;55481;48.764;8.936;2024-03-02T10:39:57;95750;;;12.8;65
68489;BME280;55481;48.764;8.936;2024-03-02T10:42:27;95750;;;13.1;64.5
68489;BME280;55481;48.764;8.936;2024-03-02T10:44:57;95750;;;13.4;64
68489;BME280;55481;48.764;8.936;2024-03-02T10:47:28;95750;;;13.5;64
68489;BME280;55481;48.764;8.936;2024-03-02T10:49:59;95740;;;13.5;64
68489;BME280;55481;48.764;8.936;2024-03-02T11:00:23;95730;;;13.7;64
68489;BME280;55481;48.764;8.936;2024-03-02T11:03:01;95740;;;13.4;65
68489;BME280;55481;48.764;8.936;2024-03-02T11:05:12;95730;;;13.5;65
68489;BME280;55481;48.764;8.936;2024-03-02T11:07:42;95720;;;13.6;64.5
68489;BME280;55481;48.764;8.936;2024-03-02T11:12:34;95720;;;13.8;64.5
68489;BME280;55481;48.764;8.936;2024-03-02T11:22:34;95700;;;13.9;64.5
68489;BME280;55481;48.764;8.936;2024-03-02T11:25:04;95700;;;14;64
68489;BME280;55481;48.764;8.936;2024-03-02T11:28:06;95690;;;13.9;64.5
68489;BME280;55481;48.764;8.936;2024-03-02T11:32:54;95690;;;14.9;62.5
68489;BME280;55481;48.764;8.936;2024-03-02T11:35:17;95670;;;15.4;61
68489;BME280;55481;48.764;8.936;2024-03-02T11:37:46;95680;;;15.1;62
68489;BME280;55481;48.764;8.936;2024-03-02T11:40:24;95680;;;15.4;61.5
68489;BME280;55481;48.764;8.936;2024-03-02T11:53:09;95660;;;17.2;58.5
68489;BME280;55481;48.764;8.936;2024-03-02T11:55:40;95640;;;17.6;57.5
68489;BME280;55481;48.764;8.936;2024-03-02T11:57:49;95640;;;18.3;56
68489;BME280;55481;48.764;8.936;2024-03-02T12:00:20;95640;;;18.7;55.5
68489;BME280;55481;48.764;8.936;2024-03-02T12:02:59;95630;;;19.4;54.5
68489;BME280;55481;48.764;8.936;2024-03-02T12:05:20;95630;;;19.3;55.5
68489;BME280;55481;48.764;8.936;2024-03-02T12:10:31;95620;;;19.7;55.5
68489;BME280;55481;48.764;8.936;2024-03-02T12:13:02;95620;;;20.6;54
68489;BME280;55481;48.764;8.936;2024-03-02T12:15:34;95620;;;21.2;52.5
68489;BME280;55481;48.764;8.936;2024-03-02T12:18:03;95620;;;20.9;53.5
68489;BME280;55481;48.764;8.936;2024-03-02T12:20:22;95620;;;21;53.5
68489;BME280;55481;48.764;8.936;2024-03-02T12:22:52;95620;;;20.8;54.5
68489;BME280;55481;48.764;8.936;2024-03-02T12:25:22;95620;;;20.8;54.5
68489;BME280;55481;48.764;8.936;2024-03-02T12:27:41;95610;;;20.7;55
68489;BME280;55481;48.764;8.936;2024-03-02T12:30:12;95610;;;20.5;56
68489;BME280;55481;48.764;8.936;2024-03-02T12:37:45;95600;;;20.5;56
68489;BME280;55481;48.764;8.936;2024-03-02T12:40:15;95600;;;20.4;56
68489;BME280;55481;48.764;8.936;2024-03-02T12:42:45;95600;;;20.7;55.5
68489;BME280;55481;48.764;8.936;2024-03-02T12:45:15;95600;;;20;57
68489;BME280;55481;48.764;8.936;2024-03-02T12:47:59;95600;;;20.1;56.5
68489;BME280;55481;48.764;8.936;2024-03-02T12:50:27;95590;;;19.8;57
68489;BME280;55481;48.764;8.936;2024-03-02T12:52:57;95590;;;19.9;57
68489;BME280;55481;48.764;8.936;2024-03-02T12:55:27;95590;;;20.6;55
68489;BME280;55481;48.764;8.936;2024-03-02T13:00:17;95570;;;21.7;52.5
68489;BME280;55481;48.764;8.936;2024-03-02T13:02:47;95580;;;21.7;52.5
68489;BME280;55481;48.764;8.936;2024-03-02T13:05:18;95580;;;21.4;53.5
68489;BME280;55481;48.764;8.936;2024-03-02T13:07:49;95570;;;21.5;53
68489;BME280;55481;48.764;8.936;2024-03-02T13:10:19;95570;;;21.2;53
68489;BME280;55481;48.764;8.936;2024-03-02T13:13:01;95580;;;20.5;54.5
68489;BME280;55481;48.764;8.936;2024-03-02T13:15:32;95580;;;20;55.5
68489;BME280;55481;48.764;8.936;2024-03-02T13:18:01;95580;;;19.8;55
68489;BME280;55481;48.764;8.936;2024-03-02T13:25:21;95590;;;17.8;58
68489;BME280;55481;48.764;8.936;2024-03-02T13:27:51;95590;;;17.2;58.5
68489;BME280;55481;48.764;8.936;2024-03-02T13:30:22;95590;;;16.5;59.5
68489;BME280;55481;48.764;8.936;2024-03-02T13:32:52;95590;;;15.9;60
68489;BME280;55481;48.764;8.936;2024-03-02T13:35:23;95590;;;15.5;60.5
68489;BME280;55481;48.764;8.936;2024-03-02T13:37:53;95590;;;15.4;59.5
68489;BME280;55481;48.764;8.936;2024-03-02T13:40:24;95590;;;15;59.5
68489;BME280;55481;48.764;8.936;2024-03-02T13:43:06;95590;;;15;59.5
68489;BME280;55481;48.764;8.936;2024-03-02T13:45:36;95590;;;15;58.5
68489;BME280;55481;48.764;8.936;2024-03-02T13:48:06;95580;;;15;58.5
68489;BME280;55481;48.764;8.936;2024-03-02T13:52:55;95580;;;15;58
68489;BME280;55481;48.764;8.936;2024-03-02T13:55:25;95580;;;14.9;57.5
68489;BME280;55481;48.764;8.936;2024-03-02T13:57:56;95570;;;15;57.5
68489;BME280;55481;48.764;8.936;2024-03-02T14:00:26;95570;;;15.1;57
68489;BME280;55481;48.764;8.936;2024-03-02T14:05:39;95570;;;15.7;56
68489;BME280;55481;48.764;8.936;2024-03-02T14:08:09;95570;;;15.8;56
68489;BME280;55481;48.764;8.936;2024-03-02T14:10:39;95560;;;16.4;55
68489;BME280;55481;48.764;8.936;2024-03-02T14:17:59;95540;;;19.8;49
68489;BME280;55481;48.764;8.936;2024-03-02T14:20:29;95530;;;20;49
68489;BME280;55481;48.764;8.936;2024-03-02T14:23:02;95530;;;19.8;50
68489;BME280;55481;48.764;8.936;2024-03-02T14:28:12;95520;;;21.9;47
68489;BME280;55481;48.764;8.936;2024-03-02T14:30:42;95520;;;22.9;46
68489;BME280;55481;48.764;8.936;2024-03-02T14:33:12;95520;;;24;44.5
68489;BME280;55481;48.764;8.936;2024-03-02T14:38:01;95520;;;23.9;46
68489;BME280;55481;48.764;8.936;2024-03-02T14:45:33;95510;;;22.7;48
68489;BME280;55481;48.764;8.936;2024-03-02T14:48:03;95510;;;22.7;48.5
68489;BME280;55481;48.764;8.936;2024-03-02T14:50:34;95510;;;21.8;50
68489;BME280;55481;48.764;8.936;2024-03-02T14:53:04;95500;;;22;49.5
68489;BME280;55481;48.764;8.936;2024-03-02T14:55:46;95490;;;23.5;46.5
68489;BME280;55481;48.764;8.936;2024-03-02T14:58:16;95490;;;23.7;45.5
68489;BME280;55481;48.764;8.936;2024-03-02T15:03:06;95490;;;22.9;47
68489;BME280;55481;48.764;8.936;2024-03-02T15:05:37;95490;;;21.9;49
68489;BME280;55481;48.764;8.936;2024-03-02T15:13:08;95500;;;18.9;53.5
68489;BME280;55481;48.764;8.936;2024-03-02T15:15:38;95500;;;18;55
68489;BME280;55481;48.764;8.936;2024-03-02T15:18:08;95500;;;17;56.5
68489;BME280;55481;48.764;8.936;2024-03-02T15:20:39;95500;;;16.3;57
68489;BME280;55481;48.764;8.936;2024-03-02T15:23:10;95500;;;15.8;57
68489;BME280;55481;48.764;8.936;2024-03-02T15:25:40;95490;;;15.4;57
68489;BME280;55481;48.764;8.936;2024-03-02T15:28:10;95490;;;15.2;56.5
68489;BME280;55481;48.764;8.936;2024-03-02T15:35:53;95490;;;14.9;55.5
68489;BME280;55481;48.764;8.936;2024-03-02T15:40:54;95490;;;14.8;55
68489;BME280;55481;48.764;8.936;2024-03-02T15:43:24;95480;;;14.6;55
68489;BME280;55481;48.764;8.936;2024-03-02T15:45:54;95480;;;14.4;55
68489;BME280;55481;48.764;8.936;2024-03-02T15:50:44;95480;;;14.1;55.5
68489;BME280;55481;48.764;8.936;2024-03-02T15:53:14;95470;;;13.9;55.5
68489;BME280;55481;48.764;8.936;2024-03-02T16:00:45;95480;;;13.7;55.5
68489;BME280;55481;48.764;8.936;2024-03-02T16:03:16;95480;;;13.7;55.5
68489;BME280;55481;48.764;8.936;2024-03-02T16:10:59;95490;;;13.4;55.5
68489;BME280;55481;48.764;8.936;2024-03-02T16:13:37;95490;;;13.4;55
68489;BME280;55481;48.764;8.936;2024-03-02T16:15:58;95490;;;13.3;55.5
68489;BME280;55481;48.764;8.936;2024-03-02T16:18:28;95490;;;13.2;55.5
68489;BME280;55481;48.764;8.936;2024-03-02T16:20:59;95500;;;13.2;55.5
68489;BME280;55481;48.764;8.936;2024-03-02T16:23:28;95500;;;13.1;55.5
68489;BME280;55481;48.764;8.936;2024-03-02T16:26:08;95500;;;13.1;55.5
68489;BME280;55481;48.764;8.936;2024-03-02T16:28:17;95500;;;13;55.5
68489;BME280;55481;48.764;8.936;2024-03-02T16:33:18;95500;;;13;55.5
68489;BME280;55481;48.764;8.936;2024-03-02T16:35:49;95500;;;12.9;55.5
68489;BME280;55481;48.764;8.936;2024-03-02T16:38:19;95490;;;12.8;55.5
68489;BME280;55481;48.764;8.936;2024-03-02T16:45:51;95500;;;12.6;55.5
68489;BME280;55481;48.764;8.936;2024-03-02T16:48:21;95500;;;12.5;55.5
68489;BME280;55481;48.764;8.936;2024-03-02T16:50:52;95500;;;12.3;56
68489;BME280;55481;48.764;8.936;2024-03-02T16:53:34;95500;;;12.2;56
68489;BME280;55481;48.764;8.936;2024-03-02T16:56:04;95500;;;12;56.5
68489;BME280;55481;48.764;8.936;2024-03-02T16:58:34;95500;;;11.9;56.5
68489;BME280;55481;48.764;8.936;2024-03-02T17:03:23;95500;;;11.9;56
68489;BME280;55481;48.764;8.936;2024-03-02T17:08:26;95500;;;11.9;56
68489;BME280;55481;48.764;8.936;2024-03-02T17:10:55;95500;;;12;56
68489;BME280;55481;48.764;8.936;2024-03-02T17:13:25;95490;;;12.4;55
68489;BME280;55481;48.764;8.936;2024-03-02T17:15:56;95500;;;12.7;54
68489;BME280;55481;48.764;8.936;2024-03-02T17:20:57;95500;;;12;55.5
68489;BME280;55481;48.764;8.936;2024-03-02T17:23:28;95500;;;11.8;56
68489;BME280;55481;48.764;8.936;2024-03-02T17:31:10;95510;;;11.5;56.5
68489;BME280;55481;48.764;8.936;2024-03-02T17:33:40;95510;;;11.4;56.5
68489;BME280;55481;48.764;8.936;2024-03-02T17:38:40;95510;;;11.4;56.5
68489;BME280;55481;48.764;8.936;2024-03-02T17:41:10;95500;;;11.5;56
68489;BME280;55481;48.764;8.936;2024-03-02T17:43:40;95490;;;11.5;56
68489;BME280;55481;48.764;8.936;2024-03-02T17:46:11;95480;;;11.4;56
68489;BME280;55481;48.764;8.936;2024-03-02T17:51:00;95480;;;11.3;56.5
68489;BME280;55481;48.764;8.936;2024-03-02T17:53:32;95490;;;11.3;56.5
68489;BME280;55481;48.764;8.936;2024-03-02T17:56:00;95500;;;11.3;56.5
68489;BME280;55481;48.764;8.936;2024-03-02T17:58:31;95490;;;11.3;56.5
68489;BME280;55481;48.764;8.936;2024-03-02T18:01:02;95490;;;11.2;56.5
68489;BME280;55481;48.764;8.936;2024-03-02T18:03:32;95500;;;11.3;56.5
68489;BME280;55481;48.764;8.936;2024-03-02T18:06:16;95490;;;11.3;56
68489;BME280;55481;48.764;8.936;2024-03-02T18:13:48;95490;;;11.4;56
68489;BME280;55481;48.764;8.936;2024-03-02T18:16:24;95480;;;11.4;56
68489;BME280;55481;48.764;8.936;2024-03-02T18:18:46;95480;;;11.4;56
68489;BME280;55481;48.764;8.936;2024-03-02T18:26:16;95480;;;11.2;56.5
68489;BME280;55481;48.764;8.936;2024-03-02T18:28:46;95480;;;11.2;56.5
68489;BME280;55481;48.764;8.936;2024-03-02T18:31:16;95480;;;11.2;56.5
68489;BME280;55481;48.764;8.936;2024-03-02T18:33:46;95480;;;11.1;56.5
68489;BME280;55481;48.764;8.936;2024-03-02T18:41:06;95480;;;11.1;56.5
68489;BME280;55481;48.764;8.936;2024-03-02T18:43:37;95480;;;11;56.5
68489;BME280;55481;48.764;8.936;2024-03-02T18:46:09;95480;;;11;57
68489;BME280;55481;48.764;8.936;2024-03-02T18:51:20;95470;;;10.9;57
68489;BME280;55481;48.764;8.936;2024-03-02T18:53:50;95470;;;10.8;57
68489;BME280;55481;48.764;8.936;2024-03-02T18:56:39;95460;;;10.8;57
68489;BME280;55481;48.764;8.936;2024-03-02T18:58:50;95460;;;10.8;57
68489;BME280;55481;48.764;8.936;2024-03-02T19:06:14;95470;;;10.7;57.5
68489;BME280;55481;48.764;8.936;2024-03-02T19:08:42;95470;;;10.6;57.5
68489;BME280;55481;48.764;8.936;2024-03-02T19:11:13;95470;;;10.6;57.5
68489;BME280;55481;48.764;8.936;2024-03-02T19:13:42;95470;;;10.5;57.5
68489;BME280;55481;48.764;8.936;2024-03-02T19:16:24;95470;;;10.5;57.5
68489;BME280;55481;48.764;8.936;2024-03-02T19:18:54;95470;;;10.5;57.5
68489;BME280;55481;48.764;8.936;2024-03-02T19:21:24;95460;;;10.3;58
68489;BME280;55481;48.764;8.936;2024-03-02T19:23:57;95460;;;10.3;58
68489;BME280;55481;48.764;8.936;2024-03-02T19:26:24;95450;;;10.3;58
68489;BME280;55481;48.764;8.936;2024-03-02T19:28:54;95460;;;10.3;58